sensor_id;sensor_type;location;lat;lon;timestamp;pressure;altitude;pressure_sealevel;temperature
63689;BMP280;54895;40.928;14.480;2022-10-16T00:01:13;101630.63;;;21.59
63689;BMP280;54895;40.928;14.480;2022-10-16T00:03:41;101623.66;;;21.65
63689;BMP280;54895;40.928;14.480;2022-10-16T00:06:09;101623.22;;;21.69
63689;BMP280;54895;40.928;14.480;2022-10-16T00:08:36;101625.19;;;21.59
63689;BMP280;54895;40.928;14.480;2022-10-16T00:11:08;101617.22;;;21.42
63689;BMP280;54895;40.928;14.480;2022-10-16T00:13:35;101614.63;;;21.44
63689;BMP280;54895;40.928;14.480;2022-10-16T00:16:02;101614.22;;;21.47
63689;BMP280;54895;40.928;14.480;2022-10-16T00:18:29;101614.94;;;21.48
63689;BMP280;54895;40.928;14.480;2022-10-16T00:21:02;101630.63;;;21.59
63689;BMP280;54895;40.928;14.480;2022-10-16T00:23:50;101652.63;;;21.82
63689;BMP280;54895;40.928;14.480;2022-10-16T00:26:17;101650.31;;;21.69
63689;BMP280;54895;40.928;14.480;2022-10-16T00:28:48;101643.72;;;21.43
63689;BMP280;54895;40.928;14.480;2022-10-16T00:31:17;101626.00;;;21.33
63689;BMP280;54895;40.928;14.480;2022-10-16T00:33:43;101644.88;;;21.50
63689;BMP280;54895;40.928;14.480;2022-10-16T00:36:12;101647.28;;;21.46
63689;BMP280;54895;40.928;14.480;2022-10-16T00:38:39;101649.59;;;21.49
63689;BMP280;54895;40.928;14.480;2022-10-16T00:41:09;101647.13;;;21.44
63689;BMP280;54895;40.928;14.480;2022-10-16T00:43:52;101649.53;;;21.40
63689;BMP280;54895;40.928;14.480;2022-10-16T00:46:31;101642.03;;;21.48
63689;BMP280;54895;40.928;14.480;2022-10-16T00:49:06;101646.00;;;21.47
63689;BMP280;54895;40.928;14.480;2022-10-16T00:51:54;101649.16;;;21.53
63689;BMP280;54895;40.928;14.480;2022-10-16T00:54:26;101649.00;;;21.51
63689;BMP280;54895;40.928;14.480;2022-10-16T00:56:54;101641.47;;;21.49
63689;BMP280;54895;40.928;14.480;2022-10-16T00:59:26;101641.72;;;21.34
63689;BMP280;54895;40.928;14.480;2022-10-16T01:01:53;101641.69;;;21.44
63689;BMP280;54895;40.928;14.480;2022-10-16T01:04:21;101644.59;;;21.46
63689;BMP280;54895;40.928;14.480;2022-10-16T01:07:10;101656.97;;;21.49
63689;BMP280;54895;40.928;14.480;2022-10-16T01:13:38;101652.84;;;21.48
63689;BMP280;54895;40.928;14.480;2022-10-16T01:15:59;101657.13;;;21.51
63689;BMP280;54895;40.928;14.480;2022-10-16T01:18:42;101649.53;;;21.40
63689;BMP280;54895;40.928;14.480;2022-10-16T01:21:25;101653.09;;;21.33
63689;BMP280;54895;40.928;14.480;2022-10-16T01:29:13;101653.47;;;21.20
63689;BMP280;54895;40.928;14.480;2022-10-16T01:31:44;101645.06;;;21.16
63689;BMP280;54895;40.928;14.480;2022-10-16T01:34:21;101651.00;;;21.05
63689;BMP280;54895;40.928;14.480;2022-10-16T01:37:00;101639.06;;;20.81
63689;BMP280;54895;40.928;14.480;2022-10-16T01:39:35;101634.84;;;20.88
63689;BMP280;54895;40.928;14.480;2022-10-16T01:42:17;101638.88;;;20.70
63689;BMP280;54895;40.928;14.480;2022-10-16T01:44:45;101636.13;;;20.87
63689;BMP280;54895;40.928;14.480;2022-10-16T01:47:14;101633.41;;;20.87
63689;BMP280;54895;40.928;14.480;2022-10-16T01:49:42;101648.84;;;20.94
63689;BMP280;54895;40.928;14.480;2022-10-16T01:52:14;101647.56;;;20.95
63689;BMP280;54895;40.928;14.480;2022-10-16T01:54:43;101640.41;;;20.90
63689;BMP280;54895;40.928;14.480;2022-10-16T01:57:12;101640.94;;;20.88
63689;BMP280;54895;40.928;14.480;2022-10-16T01:59:49;101643.56;;;20.96
63689;BMP280;54895;40.928;14.480;2022-10-16T02:02:19;101636.25;;;20.79
63689;BMP280;54895;40.928;14.480;2022-10-16T02:04:53;101642.66;;;20.84
63689;BMP280;54895;40.928;14.480;2022-10-16T02:07:21;101655.00;;;20.77
63689;BMP280;54895;40.928;14.480;2022-10-16T02:09:48;101653.97;;;20.73
63689;BMP280;54895;40.928;14.480;2022-10-16T02:12:27;101654.59;;;20.81
63689;BMP280;54895;40.928;14.480;2022-10-16T02:14:54;101667.16;;;20.86
63689;BMP280;54895;40.928;14.480;2022-10-16T02:17:20;101655.94;;;20.63
63689;BMP280;54895;40.928;14.480;2022-10-16T02:19:48;101642.44;;;20.46
63689;BMP280;54895;40.928;14.480;2022-10-16T02:22:20;101648.16;;;20.50
63689;BMP280;54895;40.928;14.480;2022-10-16T02:25:13;101651.16;;;20.71
63689;BMP280;54895;40.928;14.480;2022-10-16T02:28:01;101671.03;;;20.92
63689;BMP280;54895;40.928;14.480;2022-10-16T02:30:34;101661.13;;;20.78
63689;BMP280;54895;40.928;14.480;2022-10-16T02:33:02;101661.53;;;20.74
63689;BMP280;54895;40.928;14.480;2022-10-16T02:35:30;101665.44;;;20.81
63689;BMP280;54895;40.928;14.480;2022-10-16T02:37:57;101678.81;;;20.79
63689;BMP280;54895;40.928;14.480;2022-10-16T02:40:25;101659.69;;;20.77
63689;BMP280;54895;40.928;14.480;2022-10-16T02:42:53;101676.56;;;20.85
63689;BMP280;54895;40.928;14.480;2022-10-16T02:45:20;101689.72;;;20.98
63689;BMP280;54895;40.928;14.480;2022-10-16T02:47:46;101710.13;;;21.08
63689;BMP280;54895;40.928;14.480;2022-10-16T02:50:23;101712.53;;;21.04
63689;BMP280;54895;40.928;14.480;2022-10-16T02:52:51;101724.28;;;20.90
63689;BMP280;54895;40.928;14.480;2022-10-16T02:55:17;101705.28;;;20.54
63689;BMP280;54895;40.928;14.480;2022-10-16T02:57:44;101682.69;;;20.25
63689;BMP280;54895;40.928;14.480;2022-10-16T03:00:13;101684.44;;;20.30
63689;BMP280;54895;40.928;14.480;2022-10-16T03:02:40;101692.19;;;20.43
63689;BMP280;54895;40.928;14.480;2022-10-16T03:05:07;101684.13;;;20.26
63689;BMP280;54895;40.928;14.480;2022-10-16T03:07:34;101685.06;;;20.04
63689;BMP280;54895;40.928;14.480;2022-10-16T03:10:00;101689.69;;;20.11
63689;BMP280;54895;40.928;14.480;2022-10-16T03:12:28;101686.25;;;20.11
63689;BMP280;54895;40.928;14.480;2022-10-16T03:14:57;101675.84;;;20.07
63689;BMP280;54895;40.928;14.480;2022-10-16T03:17:24;101680.59;;;19.82
63689;BMP280;54895;40.928;14.480;2022-10-16T03:19:51;101675.72;;;19.64
63689;BMP280;54895;40.928;14.480;2022-10-16T03:22:17;101650.66;;;19.46
63689;BMP280;54895;40.928;14.480;2022-10-16T03:24:43;101679.44;;;19.68
63689;BMP280;54895;40.928;14.480;2022-10-16T03:27:09;101697.13;;;19.86
63689;BMP280;54895;40.928;14.480;2022-10-16T03:29:35;101709.69;;;19.91
63689;BMP280;54895;40.928;14.480;2022-10-16T03:32:02;101721.44;;;20.03
63689;BMP280;54895;40.928;14.480;2022-10-16T03:34:28;101723.03;;;20.06
63689;BMP280;54895;40.928;14.480;2022-10-16T03:36:54;101727.19;;;20.07
63689;BMP280;54895;40.928;14.480;2022-10-16T03:39:20;101733.63;;;20.12
63689;BMP280;54895;40.928;14.480;2022-10-16T03:41:47;101721.88;;;20.00
63689;BMP280;54895;40.928;14.480;2022-10-16T03:44:13;101732.91;;;20.11
63689;BMP280;54895;40.928;14.480;2022-10-16T03:46:40;101732.91;;;20.11
63689;BMP280;54895;40.928;14.480;2022-10-16T03:49:06;101732.91;;;20.11
63689;BMP280;54895;40.928;14.480;2022-10-16T03:51:32;101735.31;;;20.07
63689;BMP280;54895;40.928;14.480;2022-10-16T03:53:58;101737.59;;;20.11
63689;BMP280;54895;40.928;14.480;2022-10-16T03:56:26;101750.38;;;20.10
63689;BMP280;54895;40.928;14.480;2022-10-16T03:58:52;101749.19;;;20.04
63689;BMP280;54895;40.928;14.480;2022-10-16T04:01:18;101743.41;;;20.07
63689;BMP280;54895;40.928;14.480;2022-10-16T04:03:45;101723.94;;;19.67
63689;BMP280;54895;40.928;14.480;2022-10-16T04:06:11;101733.13;;;19.64
63689;BMP280;54895;40.928;14.480;2022-10-16T04:08:37;101725.50;;;19.70
63689;BMP280;54895;40.928;14.480;2022-10-16T04:11:05;101735.34;;;19.83
63689;BMP280;54895;40.928;14.480;2022-10-16T04:13:31;101750.09;;;19.82
63689;BMP280;54895;40.928;14.480;2022-10-16T04:15:57;101758.75;;;19.80
63689;BMP280;54895;40.928;14.480;2022-10-16T04:18:23;101751.88;;;19.87
63689;BMP280;54895;40.928;14.480;2022-10-16T04:20:53;101763.72;;;19.91
63689;BMP280;54895;40.928;14.480;2022-10-16T04:23:20;101760.88;;;19.82
63689;BMP280;54895;40.928;14.480;2022-10-16T04:25:46;101770.03;;;19.86
63689;BMP280;54895;40.928;14.480;2022-10-16T04:28:12;101758.88;;;19.65
63689;BMP280;54895;40.928;14.480;2022-10-16T04:30:39;101737.41;;;19.43
63689;BMP280;54895;40.928;14.480;2022-10-16T04:33:05;101722.09;;;19.13
63689;BMP280;54895;40.928;14.480;2022-10-16T04:35:31;101693.94;;;18.99
63689;BMP280;54895;40.928;14.480;2022-10-16T04:37:58;101687.13;;;18.98
63689;BMP280;54895;40.928;14.480;2022-10-16T04:40:24;101756.34;;;19.67
63689;BMP280;54895;40.928;14.480;2022-10-16T04:42:50;101780.63;;;19.92
63689;BMP280;54895;40.928;14.480;2022-10-16T04:45:17;101766.69;;;19.54
63689;BMP280;54895;40.928;14.480;2022-10-16T04:47:43;101765.69;;;19.66
63689;BMP280;54895;40.928;14.480;2022-10-16T04:50:09;101774.56;;;19.59
63689;BMP280;54895;40.928;14.480;2022-10-16T04:52:35;101766.69;;;19.54
63689;BMP280;54895;40.928;14.480;2022-10-16T04:55:02;101774.78;;;19.54
63689;BMP280;54895;40.928;14.480;2022-10-16T04:57:29;101769.19;;;19.59
63689;BMP280;54895;40.928;14.480;2022-10-16T04:59:56;101774.84;;;19.46
63689;BMP280;54895;40.928;14.480;2022-10-16T05:02:22;101782.00;;;19.51
63689;BMP280;54895;40.928;14.480;2022-10-16T05:04:49;101778.66;;;19.36
63689;BMP280;54895;40.928;14.480;2022-10-16T05:07:15;101758.44;;;19.20
63689;BMP280;54895;40.928;14.480;2022-10-16T05:09:41;101788.50;;;19.48
63689;BMP280;54895;40.928;14.480;2022-10-16T05:12:08;101816.13;;;19.64
63689;BMP280;54895;40.928;14.480;2022-10-16T05:14:34;101824.69;;;19.77
63689;BMP280;54895;40.928;14.480;2022-10-16T05:17:00;101834.38;;;19.48
63689;BMP280;54895;40.928;14.480;2022-10-16T05:19:27;101830.59;;;19.51
63689;BMP280;54895;40.928;14.480;2022-10-16T05:21:53;101820.63;;;19.29
63689;BMP280;54895;40.928;14.480;2022-10-16T05:24:19;101822.97;;;19.25
63689;BMP280;54895;40.928;14.480;2022-10-16T05:26:46;101812.06;;;19.08
63689;BMP280;54895;40.928;14.480;2022-10-16T05:29:12;101791.91;;;19.09
63689;BMP280;54895;40.928;14.480;2022-10-16T05:31:38;101773.56;;;19.08
63689;BMP280;54895;40.928;14.480;2022-10-16T05:34:04;101774.84;;;19.07
63689;BMP280;54895;40.928;14.480;2022-10-16T05:36:31;101780.56;;;19.18
63689;BMP280;54895;40.928;14.480;2022-10-16T05:38:57;101769.22;;;19.12
63689;BMP280;54895;40.928;14.480;2022-10-16T05:41:23;101783.13;;;19.09
63689;BMP280;54895;40.928;14.480;2022-10-16T05:43:52;101767.50;;;19.00
63689;BMP280;54895;40.928;14.480;2022-10-16T05:46:19;101756.91;;;19.02
63689;BMP280;54895;40.928;14.480;2022-10-16T05:48:45;101782.69;;;19.27
63689;BMP280;54895;40.928;14.480;2022-10-16T05:51:13;101782.00;;;19.51
63689;BMP280;54895;40.928;14.480;2022-10-16T05:53:40;101789.88;;;19.57
63689;BMP280;54895;40.928;14.480;2022-10-16T05:56:09;101793.13;;;19.55
63689;BMP280;54895;40.928;14.480;2022-10-16T05:58:37;101786.91;;;19.45
63689;BMP280;54895;40.928;14.480;2022-10-16T06:01:05;101768.75;;;19.38
63689;BMP280;54895;40.928;14.480;2022-10-16T06:03:34;101773.41;;;19.45
63689;BMP280;54895;40.928;14.480;2022-10-16T06:06:14;101780.41;;;19.73
63689;BMP280;54895;40.928;14.480;2022-10-16T06:08:41;101796.72;;;19.82
63689;BMP280;54895;40.928;14.480;2022-10-16T06:11:11;101803.41;;;19.81
63689;BMP280;54895;40.928;14.480;2022-10-16T06:13:37;101812.06;;;19.80
63689;BMP280;54895;40.928;14.480;2022-10-16T06:16:05;101810.03;;;19.88
63689;BMP280;54895;40.928;14.480;2022-10-16T06:18:31;101827.88;;;20.32
63689;BMP280;54895;40.928;14.480;2022-10-16T06:20:58;101829.03;;;20.63
63689;BMP280;54895;40.928;14.480;2022-10-16T06:23:28;101843.66;;;21.11
63689;BMP280;54895;40.928;14.480;2022-10-16T06:25:54;101844.09;;;21.00
63689;BMP280;54895;40.928;14.480;2022-10-16T06:28:20;101857.63;;;21.17
63689;BMP280;54895;40.928;14.480;2022-10-16T06:30:46;101859.88;;;21.11
63689;BMP280;54895;40.928;14.480;2022-10-16T06:33:13;101865.91;;;21.19
63689;BMP280;54895;40.928;14.480;2022-10-16T06:35:39;101874.56;;;21.34
63689;BMP280;54895;40.928;14.480;2022-10-16T06:38:05;101867.84;;;20.75
63689;BMP280;54895;40.928;14.480;2022-10-16T06:40:32;101873.09;;;20.90
63689;BMP280;54895;40.928;14.480;2022-10-16T06:42:58;101859.78;;;20.84
63689;BMP280;54895;40.928;14.480;2022-10-16T06:45:24;101864.97;;;20.73
63689;BMP280;54895;40.928;14.480;2022-10-16T06:47:50;101883.84;;;20.97
63689;BMP280;54895;40.928;14.480;2022-10-16T06:50:17;101863.69;;;20.57
63689;BMP280;54895;40.928;14.480;2022-10-16T06:52:43;101834.72;;;20.50
63689;BMP280;54895;40.928;14.480;2022-10-16T06:55:09;101851.22;;;20.95
63689;BMP280;54895;40.928;14.480;2022-10-16T06:57:35;101875.13;;;21.33
63689;BMP280;54895;40.928;14.480;2022-10-16T07:00:03;101891.25;;;21.67
63689;BMP280;54895;40.928;14.480;2022-10-16T07:02:29;101891.94;;;21.94
63689;BMP280;54895;40.928;14.480;2022-10-16T07:04:55;101910.91;;;21.94
63689;BMP280;54895;40.928;14.480;2022-10-16T07:07:22;101901.69;;;21.97
63689;BMP280;54895;40.928;14.480;2022-10-16T07:09:50;101904.34;;;22.32
63689;BMP280;54895;40.928;14.480;2022-10-16T07:12:17;101929.97;;;22.86
63689;BMP280;54895;40.928;14.480;2022-10-16T07:14:43;101935.28;;;23.03
63689;BMP280;54895;40.928;14.480;2022-10-16T07:17:09;101927.25;;;23.24
63689;BMP280;54895;40.928;14.480;2022-10-16T07:19:36;101938.34;;;23.47
63689;BMP280;54895;40.928;14.480;2022-10-16T07:22:03;101941.75;;;23.57
63689;BMP280;54895;40.928;14.480;2022-10-16T07:24:29;101950.41;;;23.84
63689;BMP280;54895;40.928;14.480;2022-10-16T07:26:55;101943.41;;;23.81
63689;BMP280;54895;40.928;14.480;2022-10-16T07:29:21;101947.78;;;23.95
63689;BMP280;54895;40.928;14.480;2022-10-16T07:31:48;101937.63;;;23.96
63689;BMP280;54895;40.928;14.480;2022-10-16T07:34:17;101945.03;;;24.05
63689;BMP280;54895;40.928;14.480;2022-10-16T07:36:43;101938.84;;;24.04
63689;BMP280;54895;40.928;14.480;2022-10-16T07:39:10;101943.38;;;24.42
63689;BMP280;54895;40.928;14.480;2022-10-16T07:41:36;101938.25;;;24.57
63689;BMP280;54895;40.928;14.480;2022-10-16T07:44:03;101929.66;;;24.61
63689;BMP280;54895;40.928;14.480;2022-10-16T07:46:29;101940.41;;;24.59
63689;BMP280;54895;40.928;14.480;2022-10-16T07:48:56;101937.91;;;24.63
63689;BMP280;54895;40.928;14.480;2022-10-16T07:51:23;101935.97;;;24.75
63689;BMP280;54895;40.928;14.480;2022-10-16T07:53:50;101933.53;;;24.90
63689;BMP280;54895;40.928;14.480;2022-10-16T07:56:18;101949.72;;;25.20
63689;BMP280;54895;40.928;14.480;2022-10-16T07:58:45;101952.94;;;25.17
63689;BMP280;54895;40.928;14.480;2022-10-16T08:01:14;101945.38;;;25.27
63689;BMP280;54895;40.928;14.480;2022-10-16T08:03:45;101959.41;;;25.44
63689;BMP280;54895;40.928;14.480;2022-10-16T08:06:12;101953.00;;;25.51
63689;BMP280;54895;40.928;14.480;2022-10-16T08:08:38;101943.28;;;25.48
63689;BMP280;54895;40.928;14.480;2022-10-16T08:11:04;101962.72;;;25.54
63689;BMP280;54895;40.928;14.480;2022-10-16T08:13:31;101953.59;;;25.06
63689;BMP280;54895;40.928;14.480;2022-10-16T08:15:58;101965.91;;;25.51
63689;BMP280;54895;40.928;14.480;2022-10-16T08:18:24;101951.00;;;25.75
63689;BMP280;54895;40.928;14.480;2022-10-16T08:20:59;101954.66;;;25.91
63689;BMP280;54895;40.928;14.480;2022-10-16T08:23:26;101951.06;;;26.11
63689;BMP280;54895;40.928;14.480;2022-10-16T08:25:54;101956.03;;;26.26
63689;BMP280;54895;40.928;14.480;2022-10-16T08:28:21;101952.47;;;26.35
63689;BMP280;54895;40.928;14.480;2022-10-16T08:30:48;101948.66;;;26.17
63689;BMP280;54895;40.928;14.480;2022-10-16T08:33:15;101942.31;;;26.01
63689;BMP280;54895;40.928;14.480;2022-10-16T08:35:41;101943.03;;;25.67
63689;BMP280;54895;40.928;14.480;2022-10-16T08:38:07;101947.44;;;25.72
63689;BMP280;54895;40.928;14.480;2022-10-16T08:40:36;101957.16;;;25.75
63689;BMP280;54895;40.928;14.480;2022-10-16T08:48:30;101967.66;;;26.38
63689;BMP280;54895;40.928;14.480;2022-10-16T08:51:01;101967.31;;;26.57
63689;BMP280;54895;40.928;14.480;2022-10-16T08:53:38;101968.63;;;26.08
63689;BMP280;54895;40.928;14.480;2022-10-16T08:56:06;101971.69;;;26.62
63689;BMP280;54895;40.928;14.480;2022-10-16T08:58:32;101965.06;;;26.06
63689;BMP280;54895;40.928;14.480;2022-10-16T09:01:01;101982.91;;;26.54
63689;BMP280;54895;40.928;14.480;2022-10-16T09:08:58;101971.50;;;25.87
63689;BMP280;54895;40.928;14.480;2022-10-16T09:17:37;101979.34;;;25.81
63689;BMP280;54895;40.928;14.480;2022-10-16T09:23:14;101979.56;;;26.56
63689;BMP280;54895;40.928;14.480;2022-10-16T09:25:47;101973.75;;;26.50
63689;BMP280;54895;40.928;14.480;2022-10-16T09:28:15;101980.28;;;25.97
63689;BMP280;54895;40.928;14.480;2022-10-16T09:30:42;101990.44;;;26.67
63689;BMP280;54895;40.928;14.480;2022-10-16T09:33:10;101995.34;;;26.57
63689;BMP280;54895;40.928;14.480;2022-10-16T09:35:42;101985.75;;;26.56
63689;BMP280;54895;40.928;14.480;2022-10-16T09:38:21;102004.72;;;26.91
63689;BMP280;54895;40.928;14.480;2022-10-16T09:40:48;102007.41;;;26.41
63689;BMP280;54895;40.928;14.480;2022-10-16T09:46:03;102004.69;;;25.95
63689;BMP280;54895;40.928;14.480;2022-10-16T09:48:38;101991.38;;;25.55
63689;BMP280;54895;40.928;14.480;2022-10-16T09:51:13;101995.69;;;26.04
63689;BMP280;54895;40.928;14.480;2022-10-16T09:53:44;101991.88;;;26.09
63689;BMP280;54895;40.928;14.480;2022-10-16T09:56:20;102003.31;;;26.53
63689;BMP280;54895;40.928;14.480;2022-10-16T09:58:51;102000.13;;;27.07
63689;BMP280;54895;40.928;14.480;2022-10-16T10:01:19;101996.22;;;27.23
63689;BMP280;54895;40.928;14.480;2022-10-16T10:03:46;102001.63;;;27.35
63689;BMP280;54895;40.928;14.480;2022-10-16T10:06:22;101986.16;;;28.06
63689;BMP280;54895;40.928;14.480;2022-10-16T10:11:53;101998.44;;;26.88
63689;BMP280;54895;40.928;14.480;2022-10-16T10:14:23;102001.81;;;27.39
63689;BMP280;54895;40.928;14.480;2022-10-16T10:22:40;102004.44;;;27.37
63689;BMP280;54895;40.928;14.480;2022-10-16T10:31:19;101985.91;;;26.97
63689;BMP280;54895;40.928;14.480;2022-10-16T10:37:08;101982.94;;;28.10
63689;BMP280;54895;40.928;14.480;2022-10-16T10:39:49;101964.66;;;28.43
63689;BMP280;54895;40.928;14.480;2022-10-16T10:42:26;101979.63;;;28.27
63689;BMP280;54895;40.928;14.480;2022-10-16T10:45:16;101978.47;;;28.45
63689;BMP280;54895;40.928;14.480;2022-10-16T10:48:02;101977.47;;;28.67
63689;BMP280;54895;40.928;14.480;2022-10-16T11:07:16;101977.72;;;29.02
63689;BMP280;54895;40.928;14.480;2022-10-16T11:09:39;101961.50;;;29.87
63689;BMP280;54895;40.928;14.480;2022-10-16T11:12:20;101979.00;;;30.13
63689;BMP280;54895;40.928;14.480;2022-10-16T11:17:24;101966.91;;;28.91
63689;BMP280;54895;40.928;14.480;2022-10-16T11:20:19;101972.03;;;29.14
63689;BMP280;54895;40.928;14.480;2022-10-16T11:25:32;101962.41;;;28.97
63689;BMP280;54895;40.928;14.480;2022-10-16T11:33:23;101957.78;;;28.42
63689;BMP280;54895;40.928;14.480;2022-10-16T11:36:08;101953.53;;;28.68
63689;BMP280;54895;40.928;14.480;2022-10-16T11:39:29;101958.94;;;29.43
63689;BMP280;54895;40.928;14.480;2022-10-16T11:41:42;101963.91;;;29.79
63689;BMP280;54895;40.928;14.480;2022-10-16T11:49:33;101957.91;;;29.35
63689;BMP280;54895;40.928;14.480;2022-10-16T11:54:52;101956.28;;;29.60
63689;BMP280;54895;40.928;14.480;2022-10-16T11:57:27;101945.63;;;28.45
63689;BMP280;54895;40.928;14.480;2022-10-16T12:00:08;101934.41;;;28.70
63689;BMP280;54895;40.928;14.480;2022-10-16T12:02:55;101929.94;;;29.23
63689;BMP280;54895;40.928;14.480;2022-10-16T12:08:14;101949.56;;;29.02
63689;BMP280;54895;40.928;14.480;2022-10-16T12:10:44;101936.09;;;29.39
63689;BMP280;54895;40.928;14.480;2022-10-16T12:13:36;101937.91;;;28.86
63689;BMP280;54895;40.928;14.480;2022-10-16T12:18:42;101922.84;;;28.87
63689;BMP280;54895;40.928;14.480;2022-10-16T12:21:09;101933.03;;;28.69
63689;BMP280;54895;40.928;14.480;2022-10-16T12:23:49;101937.56;;;29.09
63689;BMP280;54895;40.928;14.480;2022-10-16T12:26:27;101925.69;;;29.20
63689;BMP280;54895;40.928;14.480;2022-10-16T12:29:08;101930.66;;;29.89
63689;BMP280;54895;40.928;14.480;2022-10-16T12:31:44;101926.81;;;29.78
63689;BMP280;54895;40.928;14.480;2022-10-16T12:34:28;101926.53;;;30.05
63689;BMP280;54895;40.928;14.480;2022-10-16T12:36:55;101938.50;;;28.84
63689;BMP280;54895;40.928;14.480;2022-10-16T12:39:24;101923.81;;;29.72
63689;BMP280;54895;40.928;14.480;2022-10-16T12:42:02;101929.88;;;29.86
63689;BMP280;54895;40.928;14.480;2022-10-16T12:44:34;101917.75;;;29.91
63689;BMP280;54895;40.928;14.480;2022-10-16T12:47:02;101929.97;;;29.88
63689;BMP280;54895;40.928;14.480;2022-10-16T12:51:55;101928.28;;;30.88
63689;BMP280;54895;40.928;14.480;2022-10-16T12:54:30;101925.56;;;29.81
63689;BMP280;54895;40.928;14.480;2022-10-16T13:19:52;101927.53;;;30.31
63689;BMP280;54895;40.928;14.480;2022-10-16T13:22:29;101939.22;;;30.49
63689;BMP280;54895;40.928;14.480;2022-10-16T13:28:01;101936.97;;;30.63
63689;BMP280;54895;40.928;14.480;2022-10-16T13:30:34;101937.13;;;30.13
63689;BMP280;54895;40.928;14.480;2022-10-16T13:35:31;101938.91;;;30.06
63689;BMP280;54895;40.928;14.480;2022-10-16T13:38:16;101924.78;;;29.96
63689;BMP280;54895;40.928;14.480;2022-10-16T13:43:18;101943.19;;;30.83
63689;BMP280;54895;40.928;14.480;2022-10-16T13:46:03;101948.56;;;31.37
63689;BMP280;54895;40.928;14.480;2022-10-16T13:48:31;101933.25;;;30.74
63689;BMP280;54895;40.928;14.480;2022-10-16T13:50:59;101941.19;;;29.61
63689;BMP280;54895;40.928;14.480;2022-10-16T13:53:25;101939.19;;;29.79
63689;BMP280;54895;40.928;14.480;2022-10-16T13:55:52;101932.94;;;30.29
63689;BMP280;54895;40.928;14.480;2022-10-16T13:58:18;101939.41;;;31.11
63689;BMP280;54895;40.928;14.480;2022-10-16T14:00:59;101929.25;;;31.16
63689;BMP280;54895;40.928;14.480;2022-10-16T14:03:27;101934.94;;;31.62
63689;BMP280;54895;40.928;14.480;2022-10-16T14:05:57;101930.66;;;31.36
63689;BMP280;54895;40.928;14.480;2022-10-16T14:08:24;101914.03;;;31.13
63689;BMP280;54895;40.928;14.480;2022-10-16T14:10:57;101930.59;;;30.76
63689;BMP280;54895;40.928;14.480;2022-10-16T14:13:44;101933.34;;;30.76
63689;BMP280;54895;40.928;14.480;2022-10-16T14:16:18;101928.34;;;29.99
63689;BMP280;54895;40.928;14.480;2022-10-16T14:18:54;101927.34;;;31.01
63689;BMP280;54895;40.928;14.480;2022-10-16T14:21:21;101925.50;;;31.67
63689;BMP280;54895;40.928;14.480;2022-10-16T14:23:48;101929.09;;;31.31
63689;BMP280;54895;40.928;14.480;2022-10-16T14:26:17;101925.41;;;31.44
63689;BMP280;54895;40.928;14.480;2022-10-16T14:28:46;101929.78;;;30.54
63689;BMP280;54895;40.928;14.480;2022-10-16T14:33:45;101924.13;;;29.15
63689;BMP280;54895;40.928;14.480;2022-10-16T14:36:16;101927.63;;;29.33
63689;BMP280;54895;40.928;14.480;2022-10-16T14:39:00;101924.78;;;29.63
63689;BMP280;54895;40.928;14.480;2022-10-16T14:41:29;101919.06;;;30.25
63689;BMP280;54895;40.928;14.480;2022-10-16T14:44:03;101918.91;;;30.21
63689;BMP280;54895;40.928;14.480;2022-10-16T14:46:35;101917.09;;;30.10
63689;BMP280;54895;40.928;14.480;2022-10-16T14:51:30;101922.81;;;30.34
63689;BMP280;54895;40.928;14.480;2022-10-16T14:53:57;101919.63;;;30.04
63689;BMP280;54895;40.928;14.480;2022-10-16T14:56:25;101925.63;;;29.83
63689;BMP280;54895;40.928;14.480;2022-10-16T14:58:55;101926.66;;;30.09
63689;BMP280;54895;40.928;14.480;2022-10-16T15:01:23;101933.97;;;30.38
63689;BMP280;54895;40.928;14.480;2022-10-16T15:03:49;101933.28;;;30.37
63689;BMP280;54895;40.928;14.480;2022-10-16T15:06:18;101920.44;;;30.61
63689;BMP280;54895;40.928;14.480;2022-10-16T15:08:44;101927.28;;;30.99
63689;BMP280;54895;40.928;14.480;2022-10-16T15:11:16;101930.56;;;30.39
63689;BMP280;54895;40.928;14.480;2022-10-16T15:13:43;101931.66;;;30.67
63689;BMP280;54895;40.928;14.480;2022-10-16T15:16:14;101919.19;;;30.83
63689;BMP280;54895;40.928;14.480;2022-10-16T15:18:41;101926.34;;;31.12
63689;BMP280;54895;40.928;14.480;2022-10-16T15:21:08;101924.41;;;31.36
63689;BMP280;54895;40.928;14.480;2022-10-16T15:23:35;101915.72;;;30.83
63689;BMP280;54895;40.928;14.480;2022-10-16T15:26:01;101926.75;;;30.29
63689;BMP280;54895;40.928;14.480;2022-10-16T15:28:27;101916.81;;;30.02
63689;BMP280;54895;40.928;14.480;2022-10-16T15:30:55;101917.88;;;29.60
63689;BMP280;54895;40.928;14.480;2022-10-16T15:33:27;101918.00;;;29.64
63689;BMP280;54895;40.928;14.480;2022-10-16T15:36:00;101920.75;;;29.32
63689;BMP280;54895;40.928;14.480;2022-10-16T15:38:28;101920.47;;;29.26
63689;BMP280;54895;40.928;14.480;2022-10-16T15:40:55;101925.72;;;29.85
63689;BMP280;54895;40.928;14.480;2022-10-16T15:43:22;101934.81;;;30.42
63689;BMP280;54895;40.928;14.480;2022-10-16T15:48:26;101936.59;;;31.09
63689;BMP280;54895;40.928;14.480;2022-10-16T15:50:52;101940.78;;;30.54
63689;BMP280;54895;40.928;14.480;2022-10-16T15:53:18;101927.94;;;30.60
63689;BMP280;54895;40.928;14.480;2022-10-16T15:55:44;101941.56;;;30.39
63689;BMP280;54895;40.928;14.480;2022-10-16T15:58:11;101944.66;;;30.30
63689;BMP280;54895;40.928;14.480;2022-10-16T16:00:37;101949.88;;;30.06
63689;BMP280;54895;40.928;14.480;2022-10-16T16:03:05;101946.34;;;29.69
63689;BMP280;54895;40.928;14.480;2022-10-16T16:05:31;101944.97;;;29.22
63689;BMP280;54895;40.928;14.480;2022-10-16T16:07:59;101955.06;;;29.02
63689;BMP280;54895;40.928;14.480;2022-10-16T16:10:25;101956.66;;;28.18